»·PEaware :: UAL1672 KPDX-CYVR

UAL1672 :: KPDX-CYVR

FLIGHT INFORMATION

Flight Status: Arrived
Operator:
United Airlines
More flights by this operator :: More flights under this callsign
Pilot: Chuck O. (4337)
Aircraft: AIRBUS A320
(A320)
More flights by this aircraft type
Origin: KPDX Portland Intl
United States
Destination: CYVR Vancouver Intl
Canada
More flights between these airports :: More routes between these airports
Route: BTG J1 SEA PAE GRIZZ5
File this flight plan on PilotEdge
Remarks: SEL / CHAR PORTLAND1
Altitude:
(Current/Filed)
280ft
Speed:
(Current/Filed)
392kts
Departed: 01-Dec-17 01:00 PM
Arrived: 01-Dec-17 01:56 PM
Distance/Time
Traveled:
218nm/0:56
Distance/Time
To Go:
Arrived

Flight Plot

Page will automatically refresh every two minutes.

Flight plan parsing failed; only flown route is shown


Map Options




Map Legend


Flown Route
Filed Route
Departure Airport
Arrival Airport
Navaid (VOR, NDB)
Fix

Horizontal Profiles

Position Reports

Time Latitude Longitude Heading Altitude Ground
Speed
01-Dec-17 12:39 45.590488 -122.592241 208 32ft 0kts
01-Dec-17 12:40 45.590488 -122.592241 208 32ft 0kts
01-Dec-17 12:41 45.590488 -122.592241 208 32ft 0kts
01-Dec-17 12:42 45.590488 -122.592241 208 32ft 0kts
01-Dec-17 12:43 45.590488 -122.592241 208 32ft 0kts
01-Dec-17 12:44 45.590488 -122.592241 208 32ft 0kts
01-Dec-17 12:45 45.590488 -122.592241 208 32ft 0kts
01-Dec-17 12:46 45.590488 -122.592241 208 32ft 0kts
01-Dec-17 12:47 45.590488 -122.592241 208 32ft 0kts
01-Dec-17 12:48 45.590488 -122.592241 208 32ft 0kts
01-Dec-17 12:49 45.590488 -122.592241 208 32ft 0kts
01-Dec-17 12:50 45.590488 -122.592241 208 32ft 0kts
01-Dec-17 12:51 45.590859 -122.591861 233 32ft 2kts
01-Dec-17 12:52 45.590859 -122.591328 298 32ft 0kts
01-Dec-17 12:53 45.590859 -122.591328 298 32ft 0kts
01-Dec-17 12:54 45.590859 -122.591329 298 32ft 0kts
01-Dec-17 12:55 45.590860 -122.591330 298 32ft 0kts
01-Dec-17 12:56 45.590860 -122.591331 298 32ft 0kts
01-Dec-17 12:57 45.590860 -122.591332 298 32ft 0kts
01-Dec-17 12:58 45.590861 -122.591333 298 32ft 0kts
01-Dec-17 12:59 45.592084 -122.591719 114 32ft 19kts
01-Dec-17 13:00 45.588788 -122.583322 116 32ft 28kts
01-Dec-17 13:01 45.584538 -122.572386 119 32ft 34kts
01-Dec-17 13:02 45.583447 -122.569340 78 32ft 0kts
01-Dec-17 13:03 45.583447 -122.569339 78 32ft 0kts
01-Dec-17 13:04 45.584364 -122.568891 307 32ft 4kts
01-Dec-17 13:05 45.599036 -122.605386 297 394ft 179kts
01-Dec-17 13:06 45.624985 -122.677161 293 2032ft 224kts
01-Dec-17 13:07 45.658836 -122.764526 299 3889ft 291kts
01-Dec-17 13:08 45.698980 -122.855410 299 5141ft 263kts
01-Dec-17 13:09 45.757378 -122.902889 20 5357ft 278kts
01-Dec-17 13:10 45.816013 -122.827274 45 6884ft 288kts
01-Dec-17 13:11 45.872380 -122.742576 45 8575ft 299kts
01-Dec-17 13:12 45.930189 -122.653450 45 10282ft 315kts
01-Dec-17 13:13 45.994752 -122.553036 44 12011ft 364kts
01-Dec-17 13:14 46.091003 -122.520503 356 13726ft 378kts
01-Dec-17 13:15 46.197421 -122.505073 0 15714ft 389kts
01-Dec-17 13:16 46.307039 -122.489641 359 17777ft 400kts
01-Dec-17 13:17 46.419205 -122.473225 359 19638ft 411kts
01-Dec-17 13:18 46.534550 -122.456482 358 21308ft 423kts
01-Dec-17 13:19 46.653590 -122.439039 358 22859ft 434kts
01-Dec-17 13:20 46.774995 -122.421231 358 24237ft 444kts
01-Dec-17 13:21 46.899046 -122.401488 359 25655ft 451kts
01-Dec-17 13:22 47.020812 -122.380549 358 27329ft 446kts
01-Dec-17 13:23 47.142333 -122.359894 358 28106ft 444kts
01-Dec-17 13:24 47.265129 -122.338951 358 28093ft 444kts
01-Dec-17 13:25 47.383077 -122.318721 358 28088ft 444kts
01-Dec-17 13:26 47.503762 -122.304577 354 28087ft 439kts
01-Dec-17 13:27 47.624897 -122.297461 355 28094ft 439kts
01-Dec-17 13:28 47.747625 -122.289143 354 28030ft 441kts
01-Dec-17 13:29 47.862289 -122.281602 354 27806ft 424kts
01-Dec-17 13:30 47.974975 -122.292432 341 25218ft 387kts
01-Dec-17 13:31 48.078383 -122.323872 342 24725ft 377kts
01-Dec-17 13:32 48.181664 -122.353578 342 21774ft 383kts
01-Dec-17 13:33 48.283300 -122.383198 342 19420ft 361kts
01-Dec-17 13:34 48.380059 -122.411455 343 17751ft 345kts
01-Dec-17 13:35 48.472344 -122.438629 342 16151ft 332kts
01-Dec-17 13:36 48.562506 -122.465187 342 14589ft 330kts
01-Dec-17 13:37 48.652660 -122.491983 342 13025ft 328kts
01-Dec-17 13:38 48.732442 -122.541594 304 11604ft 298kts
01-Dec-17 13:39 48.784846 -122.636844 305 10610ft 296kts
01-Dec-17 13:40 48.839343 -122.731173 305 9999ft 297kts
01-Dec-17 13:41 48.893490 -122.825636 305 10004ft 297kts
01-Dec-17 13:42 48.947602 -122.920649 305 10004ft 297kts
01-Dec-17 13:43 49.001772 -123.015950 305 10000ft 297kts
01-Dec-17 13:44 49.053897 -123.107722 305 9776ft 286kts
01-Dec-17 13:45 49.088982 -123.211583 279 8339ft 275kts
01-Dec-17 13:46 49.107688 -123.321768 281 7240ft 248kts
01-Dec-17 13:47 49.123818 -123.414670 280 6762ft 206kts
01-Dec-17 13:48 49.137194 -123.491635 279 6285ft 166kts
01-Dec-17 13:49 49.148930 -123.559685 279 5283ft 165kts
01-Dec-17 13:50 49.163593 -123.625241 312 4212ft 174kts
01-Dec-17 13:51 49.200405 -123.672051 346 3170ft 180kts
01-Dec-17 13:52 49.243538 -123.657824 43 3016ft 163kts
01-Dec-17 13:53 49.250810 -123.596094 102 2985ft 157kts
01-Dec-17 13:54 49.243141 -123.530041 101 2974ft 157kts
01-Dec-17 13:55 49.235638 -123.465008 101 2994ft 150kts
01-Dec-17 13:56 49.228454 -123.402876 101 2615ft 139kts
01-Dec-17 13:57 49.221917 -123.346115 102 1915ft 132kts
01-Dec-17 13:58 49.215619 -123.291539 102 1224ft 129kts
01-Dec-17 13:59 49.209374 -123.237485 102 538ft 128kts
01-Dec-17 14:00 49.203384 -123.185958 95 28ft 72kts
01-Dec-17 14:01 49.201451 -123.175070 133 28ft 16kts
01-Dec-17 14:02 49.201392 -123.174977 133 28ft 0kts
01-Dec-17 14:03 49.201290 -123.174811 132 28ft 4kts
01-Dec-17 14:04 49.199276 -123.173820 186 28ft 14kts
01-Dec-17 14:05 49.198295 -123.173885 183 28ft 0kts
01-Dec-17 14:06 49.198295 -123.173885 183 28ft 0kts

Navigation Log

Ident Type
Flight plan parsing failed, navigation log unavailable